Time;durP1;ratioP1;P1;durP2;ratioP2;P2;SDS_P1;SDS_P2;PMS_P1;PMS_P2;Temp;Humidity;BMP_temperature;BMP_pressure;BME280_temperature;BME280_humidity;BME280_pressure;Samples;Min_cycle;Max_cycle;Signal;HPM_P1;HPM_P2
2022/10/23 00:02:19;;;;;;;8.13;3.93;;;;;;;11.95;100.00;98174.63;5013622;28;20215;-71
2022/10/23 00:04:45;;;;;;;5.80;3.60;;;;;;;11.92;100.00;98169.75;5013720;28;20215;-71
2022/10/23 00:07:12;;;;;;;9.40;4.40;;;;;;;11.89;100.00;98168.34;5013659;28;20216;-71
2022/10/23 00:09:38;;;;;;;7.40;4.20;;;;;;;11.87;100.00;98158.94;5013422;28;20228;-71
2022/10/23 00:12:05;;;;;;;5.87;3.63;;;;;;;11.82;100.00;98156.97;5013628;28;20211;-71
2022/10/23 00:14:31;;;;;;;5.80;3.80;;;;;;;11.82;100.00;98151.66;5013238;28;20668;-71
2022/10/23 00:16:57;;;;;;;6.53;4.53;;;;;;;11.81;100.00;98157.19;5013316;28;20235;-71
2022/10/23 00:19:24;;;;;;;7.80;3.80;;;;;;;11.79;100.00;98151.25;5013596;28;20201;-71
2022/10/23 00:21:50;;;;;;;7.40;4.13;;;;;;;11.77;100.00;98154.16;5013454;28;20232;-71
2022/10/23 00:24:17;;;;;;;7.30;4.23;;;;;;;11.75;100.00;98150.91;5013199;28;20673;-71
2022/10/23 00:26:43;;;;;;;14.17;4.67;;;;;;;11.71;100.00;98156.91;5013573;28;20216;-71
2022/10/23 00:29:10;;;;;;;10.17;4.20;;;;;;;11.64;100.00;98154.31;5013421;28;20224;-71
2022/10/23 00:31:38;;;;;;;7.00;4.40;;;;;;;11.60;100.00;98147.81;5013028;28;20235;-71
2022/10/23 00:34:06;;;;;;;6.73;4.07;;;;;;;11.56;100.00;98157.25;5013070;28;20699;-72
2022/10/23 00:36:34;;;;;;;8.53;4.80;;;;;;;11.52;100.00;98172.03;5013037;28;20208;-71
2022/10/23 00:39:00;;;;;;;8.43;4.30;;;;;;;11.48;100.00;98170.06;5015631;28;20668;-71
2022/10/23 00:41:31;;;;;;;9.00;4.70;;;;;;;11.51;100.00;98159.78;5017005;28;20238;-71
2022/10/23 00:44:20;;;;;;;8.00;4.60;;;;;;;11.41;100.00;98158.66;5016847;28;20631;-71
2022/10/23 00:46:46;;;;;;;10.50;4.60;;;;;;;11.36;100.00;98162.00;5006818;28;20208;-71
2022/10/23 00:49:13;;;;;;;8.60;4.87;;;;;;;11.36;100.00;98164.66;5016689;28;20698;-71
2022/10/23 00:51:52;;;;;;;7.43;4.50;;;;;;;11.36;100.00;98162.00;5016980;28;20231;-71
2022/10/23 00:54:23;;;;;;;9.07;4.57;;;;;;;11.32;100.00;98145.63;5016688;28;20192;-71
2022/10/23 00:56:49;;;;;;;8.27;4.20;;;;;;;11.33;100.00;98141.13;5016916;28;20232;-71
2022/10/23 00:59:16;;;;;;;10.17;5.07;;;;;;;11.32;100.00;98144.84;5016766;28;20204;-72
2022/10/23 01:01:42;;;;;;;10.07;4.97;;;;;;;11.35;100.00;98148.91;5016406;28;20710;-71
2022/10/23 01:04:10;;;;;;;8.77;5.17;;;;;;;11.36;100.00;98145.19;5016863;28;20568;-72
2022/10/23 01:06:50;;;;;;;8.20;4.90;;;;;;;11.35;100.00;98146.25;5015277;28;20666;-71
2022/10/23 01:09:27;;;;;;;8.03;4.70;;;;;;;11.32;100.00;98142.16;5016718;28;20273;-71
2022/10/23 01:12:02;;;;;;;9.93;4.80;;;;;;;11.35;100.00;98149.69;5016624;28;20314;-71
2022/10/23 01:14:42;;;;;;;8.37;4.43;;;;;;;11.35;100.00;98151.56;5016652;28;20191;-72
2022/10/23 01:17:30;;;;;;;10.17;4.77;;;;;;;11.33;100.00;98146.44;5015343;28;20555;-72
2022/10/23 01:20:24;;;;;;;8.33;4.67;;;;;;;11.33;100.00;98146.44;5016525;28;20223;-72
2022/10/23 01:23:14;;;;;;;12.87;4.53;;;;;;;11.32;100.00;98137.66;5016169;28;20665;-72
2022/10/23 01:25:59;;;;;;;8.20;4.67;;;;;;;11.36;100.00;98134.53;5013101;28;20206;-72
2022/10/23 01:28:30;;;;;;;12.50;4.77;;;;;;;11.38;100.00;98127.97;5016408;28;20211;-71
2022/10/23 01:31:01;;;;;;;6.83;4.53;;;;;;;11.35;100.00;98133.72;5015143;28;20227;-72
2022/10/23 01:33:41;;;;;;;13.03;5.10;;;;;;;11.32;100.00;98123.53;5016251;28;20195;-72
2022/10/23 01:36:14;;;;;;;6.57;4.60;;;;;;;11.25;100.00;98116.66;5016209;28;20218;-72
2022/10/23 01:38:40;;;;;;;6.03;4.30;;;;;;;11.29;100.00;98123.97;5015760;28;20628;-71
2022/10/23 01:41:17;;;;;;;9.10;4.83;;;;;;;11.24;100.00;98115.84;5016057;28;20226;-72
2022/10/23 01:43:45;;;;;;;7.27;4.53;;;;;;;11.25;100.00;98117.47;5016035;28;20198;-71
2022/10/23 01:46:16;;;;;;;8.47;4.50;;;;;;;11.25;100.00;98108.69;5014818;28;20204;-72
2022/10/23 01:48:47;;;;;;;7.20;4.70;;;;;;;11.23;100.00;98107.03;5015166;28;20682;-72
2022/10/23 01:51:16;;;;;;;8.43;4.47;;;;;;;11.22;100.00;98103.78;5015202;28;20231;-71
2022/10/23 01:53:45;;;;;;;9.43;4.70;;;;;;;11.21;100.00;98112.81;5015875;28;20214;-71
2022/10/23 01:56:15;;;;;;;6.73;4.33;;;;;;;11.21;100.00;98108.28;5015652;28;20210;-71
2022/10/23 01:58:48;;;;;;;9.97;5.10;;;;;;;11.25;100.00;98106.81;5016131;28;20203;-72
2022/10/23 02:01:18;;;;;;;7.83;4.37;;;;;;;11.21;100.00;98105.63;5015404;28;20715;-71
2022/10/23 02:03:45;;;;;;;10.07;5.07;;;;;;;11.16;100.00;98105.47;5016443;28;20558;-71
2022/10/23 02:06:11;;;;;;;7.00;4.50;;;;;;;11.13;100.00;98103.28;5014307;28;20211;-71
2022/10/23 02:08:38;;;;;;;12.50;4.87;;;;;;;11.17;100.00;98103.66;5015534;28;20233;-72
2022/10/23 02:11:10;;;;;;;7.70;4.17;;;;;;;11.15;100.00;98085.25;5015485;28;20230;-72
2022/10/23 02:13:55;;;;;;;6.63;4.63;;;;;;;11.16;100.00;98092.19;5014384;28;20329;-71
2022/10/23 02:16:47;;;;;;;6.27;4.87;;;;;;;11.09;100.00;98094.91;5015110;28;20222;-71
2022/10/23 02:19:35;;;;;;;7.13;4.77;;;;;;;11.06;100.00;98091.88;5015385;28;20187;-71
2022/10/23 02:22:14;;;;;;;8.70;5.00;;;;;;;11.13;100.00;98083.84;5015761;28;20192;-72
2022/10/23 02:24:55;;;;;;;8.23;4.67;;;;;;;11.09;100.00;98086.94;5015346;28;20215;-72
2022/10/23 02:27:40;;;;;;;9.57;4.47;;;;;;;11.12;100.00;98090.19;5015167;28;20190;-71
2022/10/23 02:30:09;;;;;;;9.63;4.20;;;;;;;11.10;100.00;98083.22;5013949;28;20234;-71
2022/10/23 02:32:39;;;;;;;9.50;4.03;;;;;;;11.10;100.00;98085.09;5015157;28;20576;-71
2022/10/23 02:35:06;;;;;;;8.50;4.60;;;;;;;11.10;100.00;98075.25;5015021;28;20187;-71
2022/10/23 02:37:33;;;;;;;9.97;4.70;;;;;;;11.07;100.00;98068.78;5014932;28;20206;-71
2022/10/23 02:40:00;;;;;;;8.53;4.50;;;;;;;11.08;100.00;98071.19;5013729;28;20226;-72
2022/10/23 02:42:36;;;;;;;8.67;4.87;;;;;;;11.11;100.00;98070.75;5014977;28;20211;-71
2022/10/23 02:45:15;;;;;;;9.63;4.53;;;;;;;11.07;100.00;98066.91;5014782;28;20195;-71
2022/10/23 02:48:02;;;;;;;7.50;4.93;;;;;;;11.14;100.00;98057.81;5015333;28;20561;-71
2022/10/23 02:50:38;;;;;;;7.47;4.33;;;;;;;11.11;100.00;98052.13;5014653;28;20227;-71
2022/10/23 02:53:16;;;;;;;6.57;4.80;;;;;;;11.13;100.00;98058.06;5014871;28;20248;-71
2022/10/23 02:56:23;;;;;;;7.23;4.50;;;;;;;11.10;100.00;98050.50;5014778;28;20190;-72
2022/10/23 02:59:01;;;;;;;8.03;4.30;;;;;;;11.13;100.00;98043.94;5003879;28;20203;-71
2022/10/23 03:01:38;;;;;;;7.20;4.50;;;;;;;11.10;100.00;98040.66;5012852;28;20617;-71
2022/10/23 03:04:06;;;;;;;9.40;4.60;;;;;;;11.08;100.00;98048.06;5014686;28;20201;-71
2022/10/23 03:06:32;;;;;;;9.70;4.73;;;;;;;11.11;100.00;98054.78;5014504;28;20217;-71
2022/10/23 03:09:02;;;;;;;6.13;4.87;;;;;;;11.09;100.00;98039.03;5014082;28;20222;-72
2022/10/23 03:11:29;;;;;;;9.83;4.73;;;;;;;11.09;100.00;98043.56;5014669;28;20227;-72
2022/10/23 03:13:56;;;;;;;5.43;4.37;;;;;;;11.07;100.00;98041.13;5014383;28;20207;-71
2022/10/23 03:16:22;;;;;;;8.13;4.83;;;;;;;11.09;100.00;98046.22;5013904;28;20241;-71
2022/10/23 03:18:48;;;;;;;6.70;4.73;;;;;;;11.07;100.00;98051.75;5014223;28;20209;-71
2022/10/23 03:21:15;;;;;;;5.90;4.10;;;;;;;11.01;100.00;98047.31;5013796;28;20231;-71
2022/10/23 03:23:41;;;;;;;7.47;3.80;;;;;;;11.00;100.00;98052.88;5014362;28;20587;-71
2022/10/23 03:26:07;;;;;;;9.57;4.20;;;;;;;10.98;100.00;98043.50;5014161;28;20210;-71
2022/10/23 03:28:35;;;;;;;9.63;4.53;;;;;;;10.93;100.00;98050.28;5014107;28;20231;-71
2022/10/23 03:31:02;;;;;;;9.03;4.17;;;;;;;10.94;100.00;98037.78;5013801;28;20227;-71
2022/10/23 03:33:29;;;;;;;7.50;4.00;;;;;;;10.88;100.00;98030.69;5013759;28;20674;-71
2022/10/23 03:35:55;;;;;;;5.23;4.17;;;;;;;10.86;100.00;98038.09;5013932;28;20206;-71
2022/10/23 03:38:22;;;;;;;8.50;4.30;;;;;;;10.85;100.00;98031.13;5013863;28;20222;-71
2022/10/23 03:40:48;;;;;;;7.10;4.00;;;;;;;10.83;100.00;98030.56;5013712;28;20231;-71
2022/10/23 03:43:15;;;;;;;9.13;4.40;;;;;;;10.78;100.00;98035.72;5013822;28;20207;-72
2022/10/23 03:45:41;;;;;;;10.37;4.63;;;;;;;10.80;100.00;98030.97;5013714;28;20213;-71
2022/10/23 03:48:08;;;;;;;9.33;4.37;;;;;;;10.81;100.00;98024.63;5013643;28;20221;-72
2022/10/23 03:50:35;;;;;;;7.33;4.23;;;;;;;10.86;100.00;98022.13;5013468;28;20785;-71
2022/10/23 03:53:01;;;;;;;5.10;4.60;;;;;;;10.89;100.00;98029.66;5013255;28;20206;-71
2022/10/23 03:55:28;;;;;;;11.03;4.90;;;;;;;10.90;100.00;98018.81;5013718;28;20206;-71
2022/10/23 03:57:55;;;;;;;10.53;4.57;;;;;;;10.93;100.00;98016.75;5013766;28;20210;-72
2022/10/23 04:00:22;;;;;;;7.93;4.53;;;;;;;10.95;100.00;98015.50;5013385;28;20234;-71
2022/10/23 04:02:48;;;;;;;8.40;4.23;;;;;;;10.93;100.00;98017.53;5013757;28;20210;-71
2022/10/23 04:05:14;;;;;;;11.43;4.40;;;;;;;10.94;100.00;98029.81;5013518;28;20207;-72
2022/10/23 04:07:41;;;;;;;7.10;4.20;;;;;;;10.95;100.00;98026.13;5013208;28;20214;-71
2022/10/23 04:10:08;;;;;;;5.33;4.43;;;;;;;10.98;100.00;98032.84;5013269;28;20232;-71
2022/10/23 04:12:34;;;;;;;8.97;4.60;;;;;;;10.94;100.00;98029.81;5013670;28;20207;-71
2022/10/23 04:15:01;;;;;;;5.97;4.40;;;;;;;10.99;100.00;98027.28;5017139;28;20216;-71
2022/10/23 04:17:27;;;;;;;9.33;4.67;;;;;;;10.99;100.00;98027.28;5017047;28;20666;-71
2022/10/23 04:19:53;;;;;;;6.70;4.30;;;;;;;11.00;100.00;98024.41;5017394;28;20221;-72
2022/10/23 04:22:20;;;;;;;8.50;5.03;;;;;;;11.00;100.00;98028.94;5017486;28;20213;-71
2022/10/23 04:24:46;;;;;;;8.70;4.27;;;;;;;10.96;100.00;98033.88;5017271;28;20207;-72
2022/10/23 04:27:13;;;;;;;9.27;4.40;;;;;;;10.95;100.00;98026.13;5017192;28;20704;-71
2022/10/23 04:29:40;;;;;;;6.40;4.33;;;;;;;10.92;100.00;98031.88;5017364;28;20222;-72
2022/10/23 04:32:07;;;;;;;4.67;4.23;;;;;;;10.91;100.00;98030.25;5017434;28;20202;-71
2022/10/23 04:34:34;;;;;;;10.80;4.70;;;;;;;10.91;100.00;98030.25;5017299;28;20206;-71
2022/10/23 04:37:00;;;;;;;7.10;4.10;;;;;;;10.94;100.00;98032.47;5017288;28;20232;-71
2022/10/23 04:39:26;;;;;;;5.67;4.10;;;;;;;10.98;100.00;98028.31;5017280;28;20198;-71
2022/10/23 04:41:53;;;;;;;7.87;3.60;;;;;;;10.96;100.00;98022.44;5017087;28;20227;-71
2022/10/23 04:44:19;;;;;;;7.70;4.47;;;;;;;10.96;100.00;98017.09;5017109;28;20207;-72
2022/10/23 04:46:45;;;;;;;9.07;4.73;;;;;;;11.01;100.00;98030.56;5017057;28;20218;-71
2022/10/23 04:49:12;;;;;;;7.00;3.97;;;;;;;11.05;100.00;98018.44;5016638;28;20223;-71
2022/10/23 04:51:38;;;;;;;4.53;3.90;;;;;;;11.07;100.00;98024.34;5016610;28;20241;-71
2022/10/23 04:54:05;;;;;;;5.30;3.90;;;;;;;11.08;100.00;98031.28;5016768;28;20217;-71
2022/10/23 04:56:31;;;;;;;7.83;4.37;;;;;;;11.08;100.00;98020.63;5016972;28;20211;-71
2022/10/23 04:58:57;;;;;;;7.33;3.83;;;;;;;11.10;100.00;98034.53;5016960;28;20203;-71
2022/10/23 05:01:24;;;;;;;8.87;3.97;;;;;;;11.16;100.00;98025.66;5016747;28;20227;-71
2022/10/23 05:03:50;;;;;;;6.83;3.90;;;;;;;11.19;100.00;98027.88;5016767;28;20207;-72
2022/10/23 05:06:16;;;;;;;7.60;4.43;;;;;;;11.21;100.00;98035.66;5016415;28;20212;-71
2022/10/23 05:08:43;;;;;;;8.17;3.80;;;;;;;11.20;100.00;98024.19;5016282;28;20222;-71
2022/10/23 05:11:09;;;;;;;6.03;3.87;;;;;;;11.23;100.00;98021.09;5016300;28;20231;-72
2022/10/23 05:13:35;;;;;;;5.60;3.70;;;;;;;11.21;100.00;98020.47;5016616;28;20328;-71
2022/10/23 05:16:02;;;;;;;7.03;4.20;;;;;;;11.20;100.00;98016.19;5016281;28;20215;-71
2022/10/23 05:18:44;;;;;;;5.63;3.80;;;;;;;11.16;100.00;98011.56;5016477;28;20203;-72
2022/10/23 05:21:18;;;;;;;6.33;4.27;;;;;;;11.18;100.00;98010.31;5016903;28;20238;-72
2022/10/23 05:23:45;;;;;;;4.73;3.93;;;;;;;11.13;100.00;98013.63;5016186;28;20196;-71
2022/10/23 05:26:12;;;;;;;6.10;3.63;;;;;;;11.14;100.00;98007.25;5016115;28;20210;-71
2022/10/23 05:28:38;;;;;;;5.73;4.03;;;;;;;11.13;100.00;98007.50;5016036;28;20218;-71
2022/10/23 05:31:06;;;;;;;5.90;3.73;;;;;;;11.04;100.00;98004.31;5015880;28;20717;-71
2022/10/23 05:33:32;;;;;;;5.10;3.77;;;;;;;11.07;100.00;98007.56;5016289;28;20213;-71
2022/10/23 05:36:00;;;;;;;6.10;3.67;;;;;;;11.04;100.00;98012.28;5016115;28;20203;-71
2022/10/23 05:38:29;;;;;;;4.93;3.50;;;;;;;11.07;100.00;98008.38;5015615;28;20671;-71
2022/10/23 05:40:55;;;;;;;8.37;3.40;;;;;;;11.08;100.00;98002.84;5015412;28;20234;-71
2022/10/23 05:43:22;;;;;;;7.03;3.63;;;;;;;11.09;100.00;98003.66;5016451;28;20214;-71
2022/10/23 05:45:48;;;;;;;6.63;3.67;;;;;;;11.07;100.00;98000.38;5015742;28;20219;-71
2022/10/23 05:48:16;;;;;;;6.70;4.10;;;;;;;11.04;100.00;97992.88;5015992;28;20210;-71
2022/10/23 05:50:42;;;;;;;8.53;4.00;;;;;;;10.98;100.00;97994.56;5015502;28;20698;-71
2022/10/23 05:53:10;;;;;;;7.17;3.50;;;;;;;10.96;100.00;97987.84;5015761;28;20215;-71
2022/10/23 05:55:37;;;;;;;5.00;3.87;;;;;;;10.91;100.00;97983.19;5015436;28;20689;-71
2022/10/23 05:58:04;;;;;;;4.87;3.80;;;;;;;10.91;100.00;97980.53;5015296;28;20741;-71
2022/10/23 06:00:31;;;;;;;6.57;3.80;;;;;;;10.90;100.00;97980.75;5015595;28;20218;-71
2022/10/23 06:03:00;;;;;;;5.37;3.63;;;;;;;10.91;100.00;97975.22;5015584;28;20203;-71
2022/10/23 06:05:26;;;;;;;8.80;3.90;;;;;;;10.87;100.00;97970.56;5015600;28;20202;-71
2022/10/23 06:07:52;;;;;;;5.20;3.77;;;;;;;10.92;100.00;97978.69;5015513;28;20206;-71
2022/10/23 06:10:19;;;;;;;6.83;4.10;;;;;;;10.98;100.00;97980.44;5015275;28;20245;-72
2022/10/23 06:12:45;;;;;;;7.00;4.27;;;;;;;11.01;100.00;97985.34;5015330;28;20258;-71
2022/10/23 06:15:11;;;;;;;6.33;3.90;;;;;;;11.03;100.00;97977.94;5015080;28;20226;-71
2022/10/23 06:17:38;;;;;;;7.77;4.00;;;;;;;11.05;100.00;97981.19;5015295;28;20218;-71
2022/10/23 06:20:04;;;;;;;6.87;3.27;;;;;;;11.13;100.00;97966.78;5015266;28;20223;-72
2022/10/23 06:22:31;;;;;;;6.73;3.70;;;;;;;11.12;100.00;97970.47;5015278;28;20209;-71
2022/10/23 06:24:57;;;;;;;6.43;3.50;;;;;;;11.14;100.00;97980.66;5015287;28;20207;-71
2022/10/23 06:27:24;;;;;;;5.20;3.73;;;;;;;11.18;100.00;97966.91;5015227;28;20213;-71
2022/10/23 06:29:50;;;;;;;6.00;3.57;;;;;;;11.23;100.00;97971.31;5015117;28;20229;-71
2022/10/23 06:32:17;;;;;;;5.70;3.43;;;;;;;11.25;100.00;97979.09;5015172;28;20554;-71
2022/10/23 06:34:43;;;;;;;6.10;3.43;;;;;;;11.19;100.00;97980.78;5015080;28;20299;-71
2022/10/23 06:37:10;;;;;;;5.47;3.37;;;;;;;11.28;100.00;97973.31;5014305;28;20210;-71
2022/10/23 06:39:39;;;;;;;8.63;3.30;;;;;;;11.26;100.00;97978.03;5014850;28;20203;-72
2022/10/23 06:42:05;;;;;;;5.97;3.23;;;;;;;11.28;100.00;97970.66;5014572;28;20206;-72
2022/10/23 06:44:32;;;;;;;7.10;3.60;;;;;;;11.30;100.00;97965.91;5014887;28;20207;-72
2022/10/23 06:47:00;;;;;;;7.77;3.67;;;;;;;11.38;100.00;97973.59;5014810;28;20215;-71
2022/10/23 06:49:27;;;;;;;4.87;3.47;;;;;;;11.40;100.00;97968.03;5014778;28;20256;-71
2022/10/23 06:51:53;;;;;;;6.70;3.50;;;;;;;11.34;100.00;97967.09;5014633;28;20223;-71
2022/10/23 06:54:19;;;;;;;6.27;3.30;;;;;;;11.32;100.00;97963.84;5014722;28;20207;-71
2022/10/23 06:56:46;;;;;;;5.37;3.50;;;;;;;11.41;100.00;97962.50;5015526;28;20210;-71
2022/10/23 06:59:13;;;;;;;4.93;3.33;;;;;;;11.47;100.00;97966.09;5014338;28;20208;-71
2022/10/23 07:01:39;;;;;;;7.33;3.37;;;;;;;11.43;100.00;97967.59;5013929;28;20232;-71
2022/10/23 07:04:05;;;;;;;3.97;3.10;;;;;;;11.47;100.00;97963.41;5014364;28;20206;-71
2022/10/23 07:06:32;;;;;;;5.63;3.03;;;;;;;11.56;100.00;97960.22;5014406;28;20213;-71
2022/10/23 07:08:59;;;;;;;3.97;3.37;;;;;;;11.68;100.00;97962.94;5014308;28;20208;-71
2022/10/23 07:11:26;;;;;;;6.63;3.37;;;;;;;11.72;100.00;97967.59;5014710;28;20692;-71
2022/10/23 07:13:53;;;;;;;9.93;3.70;;;;;;;11.78;100.00;97964.03;5014448;28;20242;-71
2022/10/23 07:16:21;;;;;;;7.33;3.83;;;;;;;11.79;100.00;97965.63;5013856;28;20692;-71
2022/10/23 07:18:50;;;;;;;6.00;3.37;;;;;;;11.80;100.00;97967.25;5013930;28;20675;-71
2022/10/23 07:21:16;;;;;;;4.37;3.40;;;;;;;11.77;100.00;97965.06;5014043;28;20219;-71
2022/10/23 07:23:42;;;;;;;6.63;3.40;;;;;;;11.77;100.00;97967.72;5014140;28;20207;-71
2022/10/23 07:26:13;;;;;;;6.33;3.47;;;;;;;11.81;100.00;97960.91;5013880;28;20226;-71
2022/10/23 07:28:40;;;;;;;3.70;3.30;;;;;;;11.90;100.00;97964.03;5013861;28;20655;-71
2022/10/23 07:31:07;;;;;;;4.50;3.60;;;;;;;11.91;100.00;97957.66;5013948;28;20239;-71
2022/10/23 07:33:33;;;;;;;6.87;3.60;;;;;;;11.94;100.00;97958.00;5014075;28;20211;-71
2022/10/23 07:36:00;;;;;;;4.17;3.17;;;;;;;11.98;100.00;97961.06;5013719;28;20213;-71
2022/10/23 07:38:27;;;;;;;3.83;3.50;;;;;;;12.05;100.00;97959.06;5013970;28;20266;-71
2022/10/23 07:40:53;;;;;;;5.97;3.60;;;;;;;12.06;100.00;97974.84;5014254;28;20225;-71
2022/10/23 07:43:20;;;;;;;4.03;3.10;;;;;;;12.10;100.00;97973.34;5013557;28;20295;-71
2022/10/23 07:45:48;;;;;;;7.90;3.50;;;;;;;12.16;100.00;97977.72;5013877;28;20610;-71
2022/10/23 07:48:15;;;;;;;6.80;3.10;;;;;;;12.22;100.00;97982.16;5013363;28;20255;-71
2022/10/23 07:50:41;;;;;;;4.67;3.30;;;;;;;12.23;100.00;97983.78;5013655;28;20237;-71
2022/10/23 07:53:15;;;;;;;5.13;3.27;;;;;;;12.27;100.00;97978.78;5013837;28;20238;-71
2022/10/23 07:55:41;;;;;;;7.53;3.57;;;;;;;12.34;100.00;97977.63;5013816;28;20208;-71
2022/10/23 07:58:08;;;;;;;5.27;3.27;;;;;;;12.45;100.00;97989.34;5014150;28;20214;-71
2022/10/23 08:00:34;;;;;;;8.07;3.73;;;;;;;12.46;100.00;97988.28;5013276;28;20234;-71
2022/10/23 08:03:00;;;;;;;7.10;3.07;;;;;;;12.62;100.00;97977.72;5013572;28;20231;-71
2022/10/23 08:05:27;;;;;;;7.20;3.67;;;;;;;12.69;100.00;97981.09;5013614;28;20207;-71
2022/10/23 08:07:53;;;;;;;7.17;3.50;;;;;;;12.78;100.00;97971.69;5013553;28;20296;-71
2022/10/23 08:10:19;;;;;;;5.90;3.57;;;;;;;12.82;100.00;97974.69;5013390;28;20244;-71
2022/10/23 08:12:46;;;;;;;5.00;3.20;;;;;;;12.93;100.00;97958.66;5013539;28;20211;-71
2022/10/23 08:15:12;;;;;;;5.93;3.07;;;;;;;13.03;100.00;97953.56;5013351;28;20222;-71
2022/10/23 08:17:39;;;;;;;6.30;3.13;;;;;;;13.15;100.00;97958.88;5013595;28;20194;-71
2022/10/23 08:20:05;;;;;;;5.73;2.70;;;;;;;13.21;100.00;97945.38;5013118;28;20230;-71
2022/10/23 08:22:33;;;;;;;3.90;2.40;;;;;;;13.25;100.00;97957.19;5013451;28;20205;-71
2022/10/23 08:25:00;;;;;;;3.63;2.27;;;;;;;13.33;100.00;97958.66;5013435;28;20213;-71
2022/10/23 08:27:26;;;;;;;7.40;2.90;;;;;;;13.53;100.00;97951.88;5013317;28;20576;-71
2022/10/23 08:29:53;;;;;;;3.07;2.50;;;;;;;13.63;100.00;97949.38;5013208;28;20230;-71
2022/10/23 08:32:19;;;;;;;2.63;2.37;;;;;;;13.75;100.00;97947.44;5013360;28;20212;-71
2022/10/23 08:34:45;;;;;;;3.63;2.30;;;;;;;13.89;100.00;97955.97;5013440;28;20238;-71
2022/10/23 08:37:12;;;;;;;2.80;2.60;;;;;;;13.94;100.00;97942.69;5013420;28;20210;-71
2022/10/23 08:39:38;;;;;;;3.83;2.47;;;;;;;13.84;100.00;97940.63;5013224;28;20210;-71
2022/10/23 08:42:05;;;;;;;3.03;2.10;;;;;;;13.78;100.00;97936.28;5013233;28;20206;-71
2022/10/23 08:44:54;;;;;;;4.90;2.30;;;;;;;13.75;100.00;97938.63;5011923;28;20203;-71
2022/10/23 08:47:33;;;;;;;3.23;1.90;;;;;;;13.80;100.00;97933.38;5013065;28;20194;-71
2022/10/23 08:50:12;;;;;;;2.50;2.30;;;;;;;13.81;100.00;97926.97;5013002;28;20238;-71
2022/10/23 08:52:52;;;;;;;2.27;2.07;;;;;;;13.78;100.00;97922.91;5011533;28;20194;-71
2022/10/23 08:55:33;;;;;;;3.37;2.10;;;;;;;13.99;100.00;97921.38;5012903;28;20560;-71
2022/10/23 08:58:15;;;;;;;3.97;2.20;;;;;;;14.03;100.00;97926.00;5011825;28;20198;-71
2022/10/23 09:00:43;;;;;;;4.83;2.27;;;;;;;14.02;100.00;97927.03;5016382;28;20219;-71
2022/10/23 09:03:12;;;;;;;4.40;2.10;;;;;;;14.29;100.00;97924.56;5016681;28;20214;-71
2022/10/23 09:06:00;;;;;;;5.33;2.77;;;;;;;14.34;100.00;97938.78;5016700;28;20206;-71
2022/10/23 09:08:48;;;;;;;7.50;6.77;;;;;;;14.51;100.00;97926.19;5016348;28;20669;-71
2022/10/23 09:11:32;;;;;;;6.27;3.87;;;;;;;14.53;100.00;97934.81;5016363;28;20238;-71
2022/10/23 09:14:08;;;;;;;5.23;2.30;;;;;;;14.71;100.00;97934.53;5016540;28;20266;-71
2022/10/23 09:16:57;;;;;;;4.17;2.40;;;;;;;14.85;100.00;97925.06;5016043;28;20225;-71
2022/10/23 09:19:28;;;;;;;4.17;2.20;;;;;;;14.87;100.00;97928.28;5015227;28;20557;-71
2022/10/23 09:21:56;;;;;;;3.73;1.90;;;;;;;15.10;100.00;97929.91;5016012;28;20273;-71
2022/10/23 09:24:24;;;;;;;4.53;2.17;;;;;;;15.13;100.00;97930.22;5015918;28;20220;-71
2022/10/23 09:26:52;;;;;;;1.97;1.80;;;;;;;15.27;100.00;97925.25;5015949;28;20211;-71
2022/10/23 09:29:34;;;;;;;4.83;2.00;;;;;;;15.60;100.00;97922.44;5016235;28;20302;-71
2022/10/23 09:32:04;;;;;;;2.83;1.93;;;;;;;15.60;100.00;97930.47;5015517;28;20226;-71
2022/10/23 09:34:33;;;;;;;3.17;2.00;;;;;;;15.64;98.93;97929.69;5015909;28;20209;-71
2022/10/23 09:37:21;;;;;;;2.57;1.87;;;;;;;15.87;98.22;97925.91;5016038;28;20210;-71
2022/10/23 09:39:47;;;;;;;3.87;1.90;;;;;;;15.81;98.29;97922.34;5016143;28;20195;-71
2022/10/23 09:42:22;;;;;;;2.97;1.93;;;;;;;15.95;95.77;97920.03;5015929;28;20206;-71
2022/10/23 09:44:51;;;;;;;5.33;1.80;;;;;;;16.20;96.00;97910.31;5014437;28;20191;-71
2022/10/23 09:47:23;;;;;;;2.13;1.67;;;;;;;16.27;95.96;97916.28;5015686;28;20206;-71
2022/10/23 09:49:52;;;;;;;2.10;1.90;;;;;;;16.27;94.34;97908.22;5015588;28;20210;-71
2022/10/23 09:52:18;;;;;;;2.63;2.00;;;;;;;16.21;93.40;97911.13;5015753;28;20214;-71
2022/10/23 09:54:47;;;;;;;4.20;1.80;;;;;;;16.31;93.54;97912.00;5015297;28;20670;-71
2022/10/23 09:57:37;;;;;;;2.93;1.83;;;;;;;16.47;92.37;97899.53;5015641;28;20207;-71
2022/10/23 10:00:14;;;;;;;3.40;1.80;;;;;;;16.50;90.17;97897.13;5015106;28;20222;-71
2022/10/23 10:02:43;;;;;;;2.70;1.90;;;;;;;16.70;89.79;97883.81;5015957;28;20201;-71
2022/10/23 10:05:33;;;;;;;3.90;1.73;;;;;;;16.72;88.48;97891.59;5015159;28;20233;-71
2022/10/23 10:08:03;;;;;;;2.63;1.70;;;;;;;16.86;89.10;97904.28;5015243;28;20206;-71
2022/10/23 10:10:37;;;;;;;4.63;1.77;;;;;;;17.07;86.89;97908.69;5012864;28;20235;-71
2022/10/23 10:13:24;;;;;;;3.53;1.60;;;;;;;16.94;88.03;97911.03;5015145;28;20187;-71
2022/10/23 10:16:00;;;;;;;3.37;1.60;;;;;;;16.83;91.55;97912.06;5015063;28;20225;-71
2022/10/23 10:18:50;;;;;;;2.37;1.30;;;;;;;16.99;89.75;97903.81;5015014;28;20278;-71
2022/10/23 10:21:45;;;;;;;3.67;1.60;;;;;;;17.15;86.59;97886.66;5013867;28;20223;-71
2022/10/23 10:24:22;;;;;;;3.87;1.50;;;;;;;17.20;87.95;97902.78;5014940;28;20206;-71
2022/10/23 10:27:14;;;;;;;3.90;1.37;;;;;;;17.11;87.06;97887.47;5014853;28;20558;-71
2022/10/23 10:29:56;;;;;;;5.23;1.73;;;;;;;17.33;85.74;97899.59;5014664;28;20195;-71
2022/10/23 10:32:34;;;;;;;3.30;1.60;;;;;;;17.43;86.66;97888.91;5013550;28;20538;-71
2022/10/23 10:35:24;;;;;;;2.37;1.43;;;;;;;17.69;86.11;97882.47;5014304;28;20638;-71
2022/10/23 10:38:25;;;;;;;2.67;1.60;;;;;;;17.88;85.36;97880.06;5014696;28;20274;-71
2022/10/23 10:41:26;;;;;;;2.40;1.60;;;;;;;17.93;84.76;97872.00;5014620;28;20226;-71
2022/10/23 10:44:30;;;;;;;4.80;1.87;;;;;;;18.18;82.73;97864.72;5009597;28;20784;-71
2022/10/23 10:47:03;;;;;;;2.80;1.60;;;;;;;18.31;80.87;97848.00;5015205;28;20206;-72
2022/10/23 10:49:53;;;;;;;2.40;1.50;;;;;;;18.22;83.18;97835.38;5014719;28;20206;-71
2022/10/23 10:52:28;;;;;;;3.27;1.50;;;;;;;18.11;84.32;97850.75;5010277;28;20249;-71
2022/10/23 10:55:18;;;;;;;2.60;1.33;;;;;;;18.05;83.59;97854.50;5014573;28;20194;-71
2022/10/23 10:57:52;;;;;;;3.13;1.63;;;;;;;17.98;84.97;97851.28;5014618;28;20190;-71
2022/10/23 11:00:22;;;;;;;6.63;1.77;;;;;;;17.95;88.64;97865.28;5014265;28;20233;-71
2022/10/23 11:03:08;;;;;;;4.83;1.93;;;;;;;18.00;85.09;97864.47;5014746;28;20669;-71
2022/10/23 11:05:40;;;;;;;3.43;1.97;;;;;;;18.14;83.76;97857.47;5010847;28;20214;-71
2022/10/23 11:08:15;;;;;;;3.70;2.10;;;;;;;18.12;82.90;97857.72;5015053;28;20187;-71
2022/10/23 11:10:46;;;;;;;3.37;2.10;;;;;;;18.20;82.95;97862.56;5014084;28;20230;-71
2022/10/23 11:13:37;;;;;;;2.50;1.93;;;;;;;18.28;83.32;97848.53;5013202;28;20191;-71
2022/10/23 11:16:13;;;;;;;4.63;2.03;;;;;;;18.28;82.77;97840.47;5014360;28;20241;-71
2022/10/23 11:18:43;;;;;;;4.40;1.90;;;;;;;18.30;81.88;97834.81;5014033;28;20200;-71
2022/10/23 11:21:26;;;;;;;3.00;1.87;;;;;;;18.22;82.75;97836.19;5012090;28;20227;-71
2022/10/23 11:23:52;;;;;;;1.87;1.57;;;;;;;18.28;83.87;97832.38;5014025;28;20197;-71
2022/10/23 11:26:31;;;;;;;3.90;1.40;;;;;;;18.25;82.27;97822.19;5013989;28;20597;-72
2022/10/23 11:29:09;;;;;;;1.70;1.53;;;;;;;18.29;80.75;97819.75;5014014;28;20206;-71
2022/10/23 11:31:45;;;;;;;4.07;1.60;;;;;;;18.34;82.47;97801.75;5013825;28;20253;-72
2022/10/23 11:34:49;;;;;;;2.30;1.60;;;;;;;18.40;81.17;97797.94;5013722;28;20187;-71
2022/10/23 11:37:18;;;;;;;2.63;1.90;;;;;;;18.34;81.53;97801.75;5013452;28;20673;-71
2022/10/23 11:40:01;;;;;;;1.60;1.43;;;;;;;18.34;82.33;97796.34;5013921;28;20207;-71
2022/10/23 11:42:34;;;;;;;2.73;1.67;;;;;;;18.33;83.37;97792.03;5012398;28;20187;-71
2022/10/23 11:45:00;;;;;;;3.80;1.47;;;;;;;18.31;84.67;97790.66;5012452;28;20202;-71
2022/10/23 11:47:36;;;;;;;2.03;1.53;;;;;;;18.46;81.27;97796.84;5014064;28;20218;-71